sensor_id;sensor_type;location;lat;lon;timestamp;pressure;altitude;pressure_sealevel;temperature;humidity
73918;BME280;63639;52.280;5.162;2023-02-01T00:00:36;102031.64;;;9.45;60.45
73918;BME280;63639;52.280;5.162;2023-02-01T00:03:03;102031.08;;;9.35;60.40
73918;BME280;63639;52.280;5.162;2023-02-01T00:05:38;102026.43;;;9.22;60.38
73918;BME280;63639;52.280;5.162;2023-02-01T00:08:08;102034.12;;;9.33;60.56
73918;BME280;63639;52.280;5.162;2023-02-01T00:10:35;102033.15;;;9.57;59.37
73918;BME280;63639;52.280;5.162;2023-02-01T00:13:01;102036.10;;;9.57;59.58
73918;BME280;63639;52.280;5.162;2023-02-01T00:15:29;102036.84;;;9.79;58.91
73918;BME280;63639;52.280;5.162;2023-02-01T00:17:56;102031.72;;;9.85;58.99
73918;BME280;63639;52.280;5.162;2023-02-01T00:20:23;102032.01;;;9.50;59.08
73918;BME280;63639;52.280;5.162;2023-02-01T00:22:49;102030.33;;;9.46;59.53
73918;BME280;63639;52.280;5.162;2023-02-01T00:25:17;102033.22;;;9.52;59.49
73918;BME280;63639;52.280;5.162;2023-02-01T00:27:49;102040.09;;;9.69;59.32
73918;BME280;63639;52.280;5.162;2023-02-01T00:30:21;102036.14;;;9.68;59.07
73918;BME280;63639;52.280;5.162;2023-02-01T00:32:50;102037.51;;;9.60;59.16
73918;BME280;63639;52.280;5.162;2023-02-01T00:35:17;102036.02;;;9.67;59.09
73918;BME280;63639;52.280;5.162;2023-02-01T00:37:44;102037.41;;;9.50;59.63
73918;BME280;63639;52.280;5.162;2023-02-01T00:40:16;102028.76;;;9.59;59.45
73918;BME280;63639;52.280;5.162;2023-02-01T00:42:44;102024.92;;;9.69;59.30
73918;BME280;63639;52.280;5.162;2023-02-01T00:45:12;102028.16;;;9.60;58.88
73918;BME280;63639;52.280;5.162;2023-02-01T00:47:40;102029.66;;;9.40;60.00
73918;BME280;63639;52.280;5.162;2023-02-01T00:50:09;102029.43;;;9.31;60.11
73918;BME280;63639;52.280;5.162;2023-02-01T00:52:36;102032.37;;;9.39;59.79
73918;BME280;63639;52.280;5.162;2023-02-01T00:55:04;102038.27;;;9.46;59.87
73918;BME280;63639;52.280;5.162;2023-02-01T00:57:31;102027.35;;;9.36;60.19
73918;BME280;63639;52.280;5.162;2023-02-01T00:59:59;102032.89;;;9.19;60.61
73918;BME280;63639;52.280;5.162;2023-02-01T01:02:26;102014.02;;;9.37;60.09
73918;BME280;63639;52.280;5.162;2023-02-01T01:04:54;102007.65;;;9.37;59.84
73918;BME280;63639;52.280;5.162;2023-02-01T01:07:20;102011.36;;;9.45;60.04
73918;BME280;63639;52.280;5.162;2023-02-01T01:09:58;102023.01;;;9.44;59.64
73918;BME280;63639;52.280;5.162;2023-02-01T01:12:25;102013.81;;;9.40;59.78
73918;BME280;63639;52.280;5.162;2023-02-01T01:14:58;102014.44;;;9.35;59.71
73918;BME280;63639;52.280;5.162;2023-02-01T01:17:24;102012.55;;;9.25;60.12
73918;BME280;63639;52.280;5.162;2023-02-01T01:19:51;102015.81;;;9.07;60.74
73918;BME280;63639;52.280;5.162;2023-02-01T01:22:18;102014.81;;;9.11;60.70
73918;BME280;63639;52.280;5.162;2023-02-01T01:24:44;102018.13;;;9.28;60.29
73918;BME280;63639;52.280;5.162;2023-02-01T01:27:11;102005.01;;;9.37;60.14
73918;BME280;63639;52.280;5.162;2023-02-01T01:29:38;102006.21;;;9.15;60.50
73918;BME280;63639;52.280;5.162;2023-02-01T01:32:05;101999.69;;;9.34;60.16
73918;BME280;63639;52.280;5.162;2023-02-01T01:34:32;102006.33;;;9.28;60.22
73918;BME280;63639;52.280;5.162;2023-02-01T01:36:59;102004.11;;;9.13;60.59
73918;BME280;63639;52.280;5.162;2023-02-01T01:39:25;102012.58;;;9.49;60.06
73918;BME280;63639;52.280;5.162;2023-02-01T01:41:53;102012.81;;;9.58;59.51
73918;BME280;63639;52.280;5.162;2023-02-01T01:45:28;102013.04;;;9.51;59.43
73918;BME280;63639;52.280;5.162;2023-02-01T01:47:57;102005.72;;;9.40;60.02
73918;BME280;63639;52.280;5.162;2023-02-01T01:50:27;102001.79;;;9.35;60.54
73918;BME280;63639;52.280;5.162;2023-02-01T01:52:57;101998.39;;;9.34;60.51
73918;BME280;63639;52.280;5.162;2023-02-01T01:55:27;101992.60;;;9.51;60.13
73918;BME280;63639;52.280;5.162;2023-02-01T01:58:01;101983.59;;;9.46;60.25
73918;BME280;63639;52.280;5.162;2023-02-01T02:03:43;101979.87;;;9.46;60.50
73918;BME280;63639;52.280;5.162;2023-02-01T02:06:17;101980.95;;;9.49;60.85
73918;BME280;63639;52.280;5.162;2023-02-01T02:08:46;101992.70;;;9.35;61.51
73918;BME280;63639;52.280;5.162;2023-02-01T02:11:16;101990.38;;;9.32;61.38
73918;BME280;63639;52.280;5.162;2023-02-01T02:13:46;101981.05;;;9.46;61.48
73918;BME280;63639;52.280;5.162;2023-02-01T02:16:28;101988.18;;;9.34;61.54
73918;BME280;63639;52.280;5.162;2023-02-01T02:19:21;101977.16;;;9.21;62.13
73918;BME280;63639;52.280;5.162;2023-02-01T02:22:03;101970.63;;;9.54;61.19
73918;BME280;63639;52.280;5.162;2023-02-01T02:24:54;101959.01;;;9.29;61.44
73918;BME280;63639;52.280;5.162;2023-02-01T02:27:35;101958.02;;;9.41;61.46
73918;BME280;63639;52.280;5.162;2023-02-01T02:30:59;101948.96;;;9.45;61.07
73918;BME280;63639;52.280;5.162;2023-02-01T02:33:41;101949.05;;;9.23;61.79
73918;BME280;63639;52.280;5.162;2023-02-01T02:36:17;101953.88;;;9.26;61.70
73918;BME280;63639;52.280;5.162;2023-02-01T02:38:51;101955.84;;;9.17;61.93
73918;BME280;63639;52.280;5.162;2023-02-01T02:41:26;101947.07;;;8.96;62.86
73918;BME280;63639;52.280;5.162;2023-02-01T02:43:58;101939.90;;;9.10;62.78
73918;BME280;63639;52.280;5.162;2023-02-01T02:46:30;101943.82;;;9.00;63.22
73918;BME280;63639;52.280;5.162;2023-02-01T02:49:07;101929.44;;;9.21;62.64
73918;BME280;63639;52.280;5.162;2023-02-01T02:51:40;101922.43;;;9.45;61.80
73918;BME280;63639;52.280;5.162;2023-02-01T02:54:11;101930.43;;;9.36;62.13
73918;BME280;63639;52.280;5.162;2023-02-01T02:56:41;101910.47;;;9.29;62.60
73918;BME280;63639;52.280;5.162;2023-02-01T02:59:09;101908.57;;;9.02;63.41
73918;BME280;63639;52.280;5.162;2023-02-01T03:01:38;101915.53;;;9.00;63.28
73918;BME280;63639;52.280;5.162;2023-02-01T03:04:06;101927.62;;;8.99;63.28
73918;BME280;63639;52.280;5.162;2023-02-01T03:06:33;101925.46;;;8.97;63.44
73918;BME280;63639;52.280;5.162;2023-02-01T03:09:02;101923.16;;;9.07;63.01
73918;BME280;63639;52.280;5.162;2023-02-01T03:11:31;101921.03;;;9.01;63.27
73918;BME280;63639;52.280;5.162;2023-02-01T03:14:00;101922.13;;;9.05;63.18
73918;BME280;63639;52.280;5.162;2023-02-01T03:16:34;101918.78;;;9.20;62.81
73918;BME280;63639;52.280;5.162;2023-02-01T03:19:06;101920.28;;;9.21;62.76
73918;BME280;63639;52.280;5.162;2023-02-01T03:21:37;101915.26;;;8.83;63.66
73918;BME280;63639;52.280;5.162;2023-02-01T03:24:08;101920.56;;;8.76;64.03
73918;BME280;63639;52.280;5.162;2023-02-01T03:26:38;101919.15;;;8.95;63.71
73918;BME280;63639;52.280;5.162;2023-02-01T03:29:12;101931.86;;;9.00;63.21
73918;BME280;63639;52.280;5.162;2023-02-01T03:31:41;101920.10;;;8.66;64.36
73918;BME280;63639;52.280;5.162;2023-02-01T03:34:07;101926.87;;;8.65;64.49
73918;BME280;63639;52.280;5.162;2023-02-01T03:36:38;101925.34;;;8.77;64.06
73918;BME280;63639;52.280;5.162;2023-02-01T03:39:11;101917.54;;;8.94;63.24
73918;BME280;63639;52.280;5.162;2023-02-01T03:41:43;101921.44;;;8.92;63.57
73918;BME280;63639;52.280;5.162;2023-02-01T03:44:15;101917.37;;;9.09;63.55
73918;BME280;63639;52.280;5.162;2023-02-01T03:46:46;101923.21;;;9.15;63.03
73918;BME280;63639;52.280;5.162;2023-02-01T03:49:18;101923.70;;;9.18;63.47
73918;BME280;63639;52.280;5.162;2023-02-01T03:51:49;101921.73;;;9.08;63.45
73918;BME280;63639;52.280;5.162;2023-02-01T03:54:18;101926.87;;;8.92;63.78
73918;BME280;63639;52.280;5.162;2023-02-01T03:56:46;101932.01;;;8.99;63.91
73918;BME280;63639;52.280;5.162;2023-02-01T03:59:14;101939.28;;;8.85;64.15
73918;BME280;63639;52.280;5.162;2023-02-01T04:01:41;101927.31;;;9.09;63.73
73918;BME280;63639;52.280;5.162;2023-02-01T04:04:09;101943.27;;;9.26;63.07
73918;BME280;63639;52.280;5.162;2023-02-01T04:06:36;101926.78;;;9.12;63.16
73918;BME280;63639;52.280;5.162;2023-02-01T04:09:02;101929.55;;;9.46;62.08
73918;BME280;63639;52.280;5.162;2023-02-01T04:11:29;101937.11;;;9.47;62.06
73918;BME280;63639;52.280;5.162;2023-02-01T04:13:56;101934.40;;;9.19;62.82
73918;BME280;63639;52.280;5.162;2023-02-01T04:16:23;101934.04;;;8.97;63.27
73918;BME280;63639;52.280;5.162;2023-02-01T04:18:50;101931.83;;;8.99;63.50
73918;BME280;63639;52.280;5.162;2023-02-01T04:21:17;101943.46;;;8.77;64.23
73918;BME280;63639;52.280;5.162;2023-02-01T04:23:44;101956.41;;;9.03;63.70
73918;BME280;63639;52.280;5.162;2023-02-01T04:26:11;101933.39;;;8.91;63.75
73918;BME280;63639;52.280;5.162;2023-02-01T04:28:38;101926.06;;;9.20;63.26
73918;BME280;63639;52.280;5.162;2023-02-01T04:31:04;101941.82;;;9.07;63.04
73918;BME280;63639;52.280;5.162;2023-02-01T04:33:31;101923.04;;;9.09;63.29
73918;BME280;63639;52.280;5.162;2023-02-01T04:35:58;101924.09;;;8.89;63.73
73918;BME280;63639;52.280;5.162;2023-02-01T04:38:26;101924.61;;;8.92;63.68
73918;BME280;63639;52.280;5.162;2023-02-01T04:40:53;101941.17;;;8.82;63.80
73918;BME280;63639;52.280;5.162;2023-02-01T04:43:20;101934.68;;;8.78;64.34
73918;BME280;63639;52.280;5.162;2023-02-01T04:45:47;101920.42;;;9.26;63.09
73918;BME280;63639;52.280;5.162;2023-02-01T04:48:15;101921.54;;;9.11;63.13
73918;BME280;63639;52.280;5.162;2023-02-01T04:50:44;101924.73;;;9.41;62.40
73918;BME280;63639;52.280;5.162;2023-02-01T04:53:11;101925.08;;;9.47;61.78
73918;BME280;63639;52.280;5.162;2023-02-01T04:55:37;101919.86;;;9.54;61.79
73918;BME280;63639;52.280;5.162;2023-02-01T04:58:04;101917.65;;;9.39;61.99
73918;BME280;63639;52.280;5.162;2023-02-01T05:00:31;101921.20;;;9.16;62.87
73918;BME280;63639;52.280;5.162;2023-02-01T05:02:59;101915.44;;;9.02;63.44
73918;BME280;63639;52.280;5.162;2023-02-01T05:05:27;101922.98;;;8.86;63.70
73918;BME280;63639;52.280;5.162;2023-02-01T05:07:55;101923.14;;;8.88;64.26
73918;BME280;63639;52.280;5.162;2023-02-01T05:10:22;101909.28;;;9.11;63.74
73918;BME280;63639;52.280;5.162;2023-02-01T05:12:48;101912.38;;;9.21;63.38
73918;BME280;63639;52.280;5.162;2023-02-01T05:15:16;101909.10;;;9.09;63.87
73918;BME280;63639;52.280;5.162;2023-02-01T05:17:43;101905.58;;;8.98;64.10
73918;BME280;63639;52.280;5.162;2023-02-01T05:20:10;101906.24;;;9.29;63.14
73918;BME280;63639;52.280;5.162;2023-02-01T05:22:37;101919.75;;;9.06;64.00
73918;BME280;63639;52.280;5.162;2023-02-01T05:25:04;101937.75;;;9.06;64.20
73918;BME280;63639;52.280;5.162;2023-02-01T05:27:31;101938.78;;;9.00;64.58
73918;BME280;63639;52.280;5.162;2023-02-01T05:29:57;101936.55;;;9.24;64.06
73918;BME280;63639;52.280;5.162;2023-02-01T05:32:24;101944.35;;;9.01;64.24
73918;BME280;63639;52.280;5.162;2023-02-01T05:34:51;101938.06;;;9.07;64.21
73918;BME280;63639;52.280;5.162;2023-02-01T05:37:18;101928.91;;;8.87;64.85
73918;BME280;63639;52.280;5.162;2023-02-01T05:39:44;101919.81;;;9.02;64.17
73918;BME280;63639;52.280;5.162;2023-02-01T05:42:11;101928.65;;;8.89;64.38
73918;BME280;63639;52.280;5.162;2023-02-01T05:44:38;101930.44;;;8.88;64.41
73918;BME280;63639;52.280;5.162;2023-02-01T05:47:04;101927.40;;;8.75;64.96
73918;BME280;63639;52.280;5.162;2023-02-01T05:49:31;101923.08;;;8.95;64.32
73918;BME280;63639;52.280;5.162;2023-02-01T05:51:58;101919.61;;;9.04;64.35
73918;BME280;63639;52.280;5.162;2023-02-01T05:54:24;101929.96;;;9.05;64.24
73918;BME280;63639;52.280;5.162;2023-02-01T05:56:51;101917.55;;;9.13;64.16
73918;BME280;63639;52.280;5.162;2023-02-01T05:59:17;101924.93;;;9.21;63.82
73918;BME280;63639;52.280;5.162;2023-02-01T06:01:44;101931.46;;;9.57;62.50
73918;BME280;63639;52.280;5.162;2023-02-01T06:04:11;101939.72;;;9.66;61.98
73918;BME280;63639;52.280;5.162;2023-02-01T06:06:37;101933.96;;;9.44;62.74
73918;BME280;63639;52.280;5.162;2023-02-01T06:09:04;101933.63;;;9.36;63.07
73918;BME280;63639;52.280;5.162;2023-02-01T06:11:31;101935.90;;;9.20;63.57
73918;BME280;63639;52.280;5.162;2023-02-01T06:13:57;101940.93;;;9.17;63.75
73918;BME280;63639;52.280;5.162;2023-02-01T06:16:24;101928.12;;;9.06;64.10
73918;BME280;63639;52.280;5.162;2023-02-01T06:18:51;101934.74;;;9.20;63.84
73918;BME280;63639;52.280;5.162;2023-02-01T06:21:18;101933.99;;;8.97;64.22
73918;BME280;63639;52.280;5.162;2023-02-01T06:23:45;101936.98;;;8.79;64.76
73918;BME280;63639;52.280;5.162;2023-02-01T06:26:11;101936.15;;;8.64;65.50
73918;BME280;63639;52.280;5.162;2023-02-01T06:28:39;101937.59;;;8.79;64.93
73918;BME280;63639;52.280;5.162;2023-02-01T06:31:06;101932.84;;;8.92;64.72
73918;BME280;63639;52.280;5.162;2023-02-01T06:33:33;101924.13;;;8.93;64.53
73918;BME280;63639;52.280;5.162;2023-02-01T06:36:02;101920.75;;;8.91;64.55
73918;BME280;63639;52.280;5.162;2023-02-01T06:38:29;101926.92;;;8.89;64.43
73918;BME280;63639;52.280;5.162;2023-02-01T06:40:57;101927.58;;;8.97;64.12
73918;BME280;63639;52.280;5.162;2023-02-01T06:43:25;101934.97;;;9.13;63.65
73918;BME280;63639;52.280;5.162;2023-02-01T06:45:52;101938.97;;;9.10;63.91
73918;BME280;63639;52.280;5.162;2023-02-01T06:48:19;101936.93;;;9.30;63.17
73918;BME280;63639;52.280;5.162;2023-02-01T06:50:46;101934.46;;;9.09;63.67
73918;BME280;63639;52.280;5.162;2023-02-01T06:53:13;101938.51;;;9.15;63.74
73918;BME280;63639;52.280;5.162;2023-02-01T06:55:40;101939.22;;;9.10;64.08
73918;BME280;63639;52.280;5.162;2023-02-01T06:58:07;101933.84;;;8.90;64.96
73918;BME280;63639;52.280;5.162;2023-02-01T07:00:33;101942.14;;;8.91;65.08
73918;BME280;63639;52.280;5.162;2023-02-01T07:03:00;101948.72;;;8.97;65.08
73918;BME280;63639;52.280;5.162;2023-02-01T07:05:27;101943.74;;;8.94;65.47
73918;BME280;63639;52.280;5.162;2023-02-01T07:07:54;101945.97;;;8.98;65.33
73918;BME280;63639;52.280;5.162;2023-02-01T07:10:21;101944.20;;;9.08;65.10
73918;BME280;63639;52.280;5.162;2023-02-01T07:12:48;101940.72;;;9.21;64.96
73918;BME280;63639;52.280;5.162;2023-02-01T07:15:15;101945.16;;;9.08;65.15
73918;BME280;63639;52.280;5.162;2023-02-01T07:17:42;101940.11;;;8.89;65.88
73918;BME280;63639;52.280;5.162;2023-02-01T07:20:10;101941.07;;;8.96;65.75
73918;BME280;63639;52.280;5.162;2023-02-01T07:22:36;101944.09;;;9.16;65.22
73918;BME280;63639;52.280;5.162;2023-02-01T07:25:04;101942.62;;;8.90;65.79
73918;BME280;63639;52.280;5.162;2023-02-01T07:27:33;101937.19;;;8.97;66.15
73918;BME280;63639;52.280;5.162;2023-02-01T07:30:01;101931.87;;;8.85;66.11
73918;BME280;63639;52.280;5.162;2023-02-01T07:32:33;101940.10;;;8.87;66.06
73918;BME280;63639;52.280;5.162;2023-02-01T07:35:00;101938.86;;;9.05;65.35
73918;BME280;63639;52.280;5.162;2023-02-01T07:37:26;101941.21;;;9.04;65.38
73918;BME280;63639;52.280;5.162;2023-02-01T07:39:53;101950.88;;;8.93;65.50
73918;BME280;63639;52.280;5.162;2023-02-01T07:42:20;101938.89;;;8.86;65.80
73918;BME280;63639;52.280;5.162;2023-02-01T07:44:47;101947.28;;;9.17;65.03
73918;BME280;63639;52.280;5.162;2023-02-01T07:47:14;101949.08;;;9.09;64.87
73918;BME280;63639;52.280;5.162;2023-02-01T07:49:42;101943.37;;;8.87;65.65
73918;BME280;63639;52.280;5.162;2023-02-01T07:52:09;101949.48;;;8.83;65.59
73918;BME280;63639;52.280;5.162;2023-02-01T07:54:36;101946.22;;;9.14;65.12
73918;BME280;63639;52.280;5.162;2023-02-01T07:57:03;101955.70;;;9.00;65.17
73918;BME280;63639;52.280;5.162;2023-02-01T07:59:30;101958.50;;;9.19;64.78
73918;BME280;63639;52.280;5.162;2023-02-01T08:01:57;101962.64;;;8.88;65.73
73918;BME280;63639;52.280;5.162;2023-02-01T08:04:24;101966.13;;;8.95;65.48
73918;BME280;63639;52.280;5.162;2023-02-01T08:06:51;101972.07;;;8.79;66.15
73918;BME280;63639;52.280;5.162;2023-02-01T08:09:18;101960.02;;;8.93;65.89
73918;BME280;63639;52.280;5.162;2023-02-01T08:11:45;101952.67;;;9.08;65.43
73918;BME280;63639;52.280;5.162;2023-02-01T08:14:12;101949.12;;;8.89;66.10
73918;BME280;63639;52.280;5.162;2023-02-01T08:16:39;101950.88;;;9.02;65.74
73918;BME280;63639;52.280;5.162;2023-02-01T08:19:06;101947.14;;;9.14;65.62
73918;BME280;63639;52.280;5.162;2023-02-01T08:21:33;101943.40;;;8.95;65.94
73918;BME280;63639;52.280;5.162;2023-02-01T08:23:59;101942.05;;;9.26;65.02
73918;BME280;63639;52.280;5.162;2023-02-01T08:26:26;101934.61;;;9.56;64.21
73918;BME280;63639;52.280;5.162;2023-02-01T08:28:55;101936.41;;;9.45;64.12
73918;BME280;63639;52.280;5.162;2023-02-01T08:31:24;101931.89;;;9.37;64.45
73918;BME280;63639;52.280;5.162;2023-02-01T08:33:52;101933.59;;;9.31;64.85
73918;BME280;63639;52.280;5.162;2023-02-01T08:36:20;101931.91;;;9.11;65.40
73918;BME280;63639;52.280;5.162;2023-02-01T08:38:48;101927.12;;;9.22;65.23
73918;BME280;63639;52.280;5.162;2023-02-01T08:41:16;101927.89;;;8.87;66.32
73918;BME280;63639;52.280;5.162;2023-02-01T08:43:44;101938.57;;;8.99;66.19
73918;BME280;63639;52.280;5.162;2023-02-01T08:46:11;101932.51;;;8.95;66.22
73918;BME280;63639;52.280;5.162;2023-02-01T08:48:38;101933.48;;;9.09;65.78
73918;BME280;63639;52.280;5.162;2023-02-01T08:51:09;101939.91;;;9.47;64.91
73918;BME280;63639;52.280;5.162;2023-02-01T08:53:37;101955.31;;;9.65;63.94
73918;BME280;63639;52.280;5.162;2023-02-01T08:56:05;101928.85;;;9.82;63.47
73918;BME280;63639;52.280;5.162;2023-02-01T08:58:32;101935.79;;;9.73;63.36
73918;BME280;63639;52.280;5.162;2023-02-01T09:01:03;101935.50;;;9.52;63.87
73918;BME280;63639;52.280;5.162;2023-02-01T09:03:30;101922.73;;;9.38;64.22
73918;BME280;63639;52.280;5.162;2023-02-01T09:06:00;101932.54;;;9.71;63.82
73918;BME280;63639;52.280;5.162;2023-02-01T09:08:26;101941.31;;;9.62;64.20
73918;BME280;63639;52.280;5.162;2023-02-01T09:10:53;101926.32;;;9.72;63.43
73918;BME280;63639;52.280;5.162;2023-02-01T09:13:20;101939.78;;;9.70;63.28
73918;BME280;63639;52.280;5.162;2023-02-01T09:15:47;101915.20;;;9.70;63.44
73918;BME280;63639;52.280;5.162;2023-02-01T09:18:14;101931.86;;;9.79;63.00
73918;BME280;63639;52.280;5.162;2023-02-01T09:20:41;101924.21;;;9.45;63.96
73918;BME280;63639;52.280;5.162;2023-02-01T09:23:08;101921.84;;;9.64;63.52
73918;BME280;63639;52.280;5.162;2023-02-01T09:25:36;101931.25;;;9.44;64.01
73918;BME280;63639;52.280;5.162;2023-02-01T09:28:04;101933.95;;;9.53;63.89
73918;BME280;63639;52.280;5.162;2023-02-01T09:30:32;101936.26;;;9.76;63.05
73918;BME280;63639;52.280;5.162;2023-02-01T09:33:00;101950.21;;;9.21;64.41
73918;BME280;63639;52.280;5.162;2023-02-01T09:35:27;101936.93;;;9.16;65.06
73918;BME280;63639;52.280;5.162;2023-02-01T09:37:53;101932.38;;;9.54;64.04
73918;BME280;63639;52.280;5.162;2023-02-01T09:40:21;101926.79;;;9.50;63.72
73918;BME280;63639;52.280;5.162;2023-02-01T09:43:14;101925.07;;;9.60;63.48
73918;BME280;63639;52.280;5.162;2023-02-01T09:45:51;101934.70;;;9.58;63.20
73918;BME280;63639;52.280;5.162;2023-02-01T09:48:24;101929.38;;;9.88;62.28
73918;BME280;63639;52.280;5.162;2023-02-01T09:50:55;101927.53;;;9.71;62.65
73918;BME280;63639;52.280;5.162;2023-02-01T09:53:27;101925.90;;;9.65;62.74
73918;BME280;63639;52.280;5.162;2023-02-01T09:56:00;101917.85;;;9.55;63.46
73918;BME280;63639;52.280;5.162;2023-02-01T09:58:33;101916.92;;;9.25;64.68
73918;BME280;63639;52.280;5.162;2023-02-01T10:01:04;101915.12;;;9.49;65.71
73918;BME280;63639;52.280;5.162;2023-02-01T10:03:33;101909.56;;;9.41;66.43
73918;BME280;63639;52.280;5.162;2023-02-01T10:06:11;101919.47;;;9.37;66.21
73918;BME280;63639;52.280;5.162;2023-02-01T10:08:58;101931.59;;;9.16;66.98
73918;BME280;63639;52.280;5.162;2023-02-01T10:11:41;101931.12;;;9.26;67.95
73918;BME280;63639;52.280;5.162;2023-02-01T10:14:13;101933.01;;;9.23;69.08
73918;BME280;63639;52.280;5.162;2023-02-01T10:16:49;101935.43;;;9.03;68.70
73918;BME280;63639;52.280;5.162;2023-02-01T10:19:27;101931.42;;;8.83;69.75
73918;BME280;63639;52.280;5.162;2023-02-01T10:22:01;101937.12;;;8.83;70.13
73918;BME280;63639;52.280;5.162;2023-02-01T10:24:41;101926.01;;;9.28;69.50
73918;BME280;63639;52.280;5.162;2023-02-01T10:27:14;101924.65;;;9.13;68.47
73918;BME280;63639;52.280;5.162;2023-02-01T10:29:44;101923.35;;;8.81;70.30
73918;BME280;63639;52.280;5.162;2023-02-01T10:32:14;101927.37;;;8.81;69.45
73918;BME280;63639;52.280;5.162;2023-02-01T10:34:44;101923.78;;;8.91;69.23
73918;BME280;63639;52.280;5.162;2023-02-01T10:37:22;101923.02;;;9.27;68.05
73918;BME280;63639;52.280;5.162;2023-02-01T10:39:53;101911.57;;;9.11;67.68
73918;BME280;63639;52.280;5.162;2023-02-01T10:42:24;101921.74;;;8.88;68.80
73918;BME280;63639;52.280;5.162;2023-02-01T10:44:53;101902.94;;;9.05;68.43
73918;BME280;63639;52.280;5.162;2023-02-01T10:47:21;101906.06;;;9.04;68.43
73918;BME280;63639;52.280;5.162;2023-02-01T10:50:05;101923.52;;;9.23;67.98
73918;BME280;63639;52.280;5.162;2023-02-01T10:52:40;101908.07;;;9.41;67.52
73918;BME280;63639;52.280;5.162;2023-02-01T10:55:47;101910.13;;;9.44;66.71
73918;BME280;63639;52.280;5.162;2023-02-01T10:58:16;101919.95;;;9.37;66.85
73918;BME280;63639;52.280;5.162;2023-02-01T11:00:46;101919.92;;;9.04;67.22
73918;BME280;63639;52.280;5.162;2023-02-01T11:03:30;101917.84;;;9.04;68.84
73918;BME280;63639;52.280;5.162;2023-02-01T11:05:58;101908.78;;;9.05;69.07
73918;BME280;63639;52.280;5.162;2023-02-01T11:08:25;101898.88;;;9.33;68.49
73918;BME280;63639;52.280;5.162;2023-02-01T11:10:58;101921.18;;;9.34;68.07
73918;BME280;63639;52.280;5.162;2023-02-01T11:13:30;101903.75;;;9.35;68.02
73918;BME280;63639;52.280;5.162;2023-02-01T11:15:58;101905.62;;;9.53;67.22
73918;BME280;63639;52.280;5.162;2023-02-01T11:18:27;101917.98;;;9.45;67.21
73918;BME280;63639;52.280;5.162;2023-02-01T11:20:55;101914.56;;;9.34;67.58
73918;BME280;63639;52.280;5.162;2023-02-01T11:23:24;101907.72;;;9.47;67.40
73918;BME280;63639;52.280;5.162;2023-02-01T11:25:53;101908.25;;;9.36;67.37
73918;BME280;63639;52.280;5.162;2023-02-01T11:28:23;101914.10;;;9.31;67.32
73918;BME280;63639;52.280;5.162;2023-02-01T11:30:53;101907.39;;;9.42;67.40
73918;BME280;63639;52.280;5.162;2023-02-01T11:33:24;101910.36;;;9.35;67.34
73918;BME280;63639;52.280;5.162;2023-02-01T11:35:52;101888.11;;;9.45;67.28
73918;BME280;63639;52.280;5.162;2023-02-01T11:38:25;101898.22;;;9.50;66.93
73918;BME280;63639;52.280;5.162;2023-02-01T11:41:10;101883.76;;;9.66;66.39
73918;BME280;63639;52.280;5.162;2023-02-01T11:43:51;101884.06;;;9.43;66.69
73918;BME280;63639;52.280;5.162;2023-02-01T11:46:19;101875.64;;;9.32;67.39
73918;BME280;63639;52.280;5.162;2023-02-01T11:48:48;101883.70;;;9.58;66.49
73918;BME280;63639;52.280;5.162;2023-02-01T11:51:27;101892.05;;;9.55;66.40
73918;BME280;63639;52.280;5.162;2023-02-01T11:54:06;101877.12;;;9.77;66.20
73918;BME280;63639;52.280;5.162;2023-02-01T11:56:40;101881.13;;;9.69;65.97
73918;BME280;63639;52.280;5.162;2023-02-01T11:59:27;101890.81;;;9.70;65.78
73918;BME280;63639;52.280;5.162;2023-02-01T12:02:08;101872.84;;;9.77;65.94
73918;BME280;63639;52.280;5.162;2023-02-01T12:04:57;101887.14;;;9.93;65.07
73918;BME280;63639;52.280;5.162;2023-02-01T12:07:34;101874.05;;;9.84;65.46
73918;BME280;63639;52.280;5.162;2023-02-01T12:10:20;101869.88;;;9.97;65.59
73918;BME280;63639;52.280;5.162;2023-02-01T12:13:00;101888.03;;;9.86;65.54
73918;BME280;63639;52.280;5.162;2023-02-01T12:15:42;101890.60;;;9.94;65.51
73918;BME280;63639;52.280;5.162;2023-02-01T12:18:30;101867.00;;;9.89;64.98
73918;BME280;63639;52.280;5.162;2023-02-01T12:21:10;101895.61;;;9.83;65.33
73918;BME280;63639;52.280;5.162;2023-02-01T12:23:56;101864.31;;;9.91;65.41
73918;BME280;63639;52.280;5.162;2023-02-01T12:26:38;101881.72;;;9.90;65.33
73918;BME280;63639;52.280;5.162;2023-02-01T12:29:18;101866.57;;;9.94;65.66
73918;BME280;63639;52.280;5.162;2023-02-01T12:32:06;101864.38;;;9.94;65.51
73918;BME280;63639;52.280;5.162;2023-02-01T12:34:55;101860.46;;;10.10;65.16
73918;BME280;63639;52.280;5.162;2023-02-01T12:37:36;101867.19;;;10.06;65.29
73918;BME280;63639;52.280;5.162;2023-02-01T12:40:28;101865.47;;;10.01;65.60
73918;BME280;63639;52.280;5.162;2023-02-01T12:43:01;101872.25;;;10.06;65.24
73918;BME280;63639;52.280;5.162;2023-02-01T12:45:33;101859.87;;;10.23;64.99
73918;BME280;63639;52.280;5.162;2023-02-01T12:48:15;101868.63;;;9.99;66.28
73918;BME280;63639;52.280;5.162;2023-02-01T12:50:50;101855.75;;;10.12;65.72
73918;BME280;63639;52.280;5.162;2023-02-01T12:53:21;101850.32;;;10.22;65.52
73918;BME280;63639;52.280;5.162;2023-02-01T12:55:53;101863.83;;;10.20;65.35
73918;BME280;63639;52.280;5.162;2023-02-01T12:58:24;101871.09;;;10.18;65.16
73918;BME280;63639;52.280;5.162;2023-02-01T13:00:58;101868.06;;;9.86;65.76
73918;BME280;63639;52.280;5.162;2023-02-01T13:03:34;101874.19;;;9.99;65.80
73918;BME280;63639;52.280;5.162;2023-02-01T13:06:07;101863.14;;;10.25;65.03
73918;BME280;63639;52.280;5.162;2023-02-01T13:08:40;101877.33;;;10.16;64.64
73918;BME280;63639;52.280;5.162;2023-02-01T13:11:12;101874.71;;;10.00;65.14
73918;BME280;63639;52.280;5.162;2023-02-01T13:13:48;101864.57;;;10.28;64.82
73918;BME280;63639;52.280;5.162;2023-02-01T13:16:24;101868.66;;;10.21;64.85
73918;BME280;63639;52.280;5.162;2023-02-01T13:19:02;101867.85;;;10.47;63.97
73918;BME280;63639;52.280;5.162;2023-02-01T13:21:34;101877.59;;;10.18;64.56